createdAt,value
2018-06-03T00:02:15.033Z,54.72
2018-06-03T00:04:42.600Z,54.66
2018-06-03T00:07:10.161Z,54.63
2018-06-03T00:09:37.706Z,54.71
2018-06-03T00:12:05.273Z,54.82
2018-06-03T00:14:32.902Z,54.76
2018-06-03T00:17:00.495Z,54.97
2018-06-03T00:19:28.086Z,55.05
2018-06-03T00:21:55.670Z,55.02
2018-06-03T00:24:23.202Z,55.07
2018-06-03T00:26:50.785Z,55.13
2018-06-03T00:29:18.380Z,55.12
2018-06-03T00:31:45.966Z,55.15
2018-06-03T00:34:13.500Z,55.41
2018-06-03T00:36:43.991Z,55.43
2018-06-03T00:39:11.614Z,55.57
2018-06-03T00:41:39.299Z,55.64
2018-06-03T00:44:06.856Z,55.58
2018-06-03T00:46:34.417Z,55.64
2018-06-03T00:49:01.986Z,55.66
2018-06-03T00:51:29.551Z,55.78
2018-06-03T00:53:57.098Z,55.68
2018-06-03T00:56:36.330Z,55.79
2018-06-03T00:59:03.886Z,55.81
2018-06-03T01:01:31.433Z,55.99
2018-06-03T01:03:58.971Z,56.00
2018-06-03T01:06:26.517Z,56.02
2018-06-03T01:08:54.072Z,56.12
2018-06-03T01:11:21.600Z,56.23
2018-06-03T01:13:49.155Z,56.32
2018-06-03T01:16:16.687Z,56.40
2018-06-03T01:18:44.248Z,56.53
2018-06-03T01:21:11.790Z,56.62
2018-06-03T01:23:39.350Z,56.63
2018-06-03T01:26:06.909Z,56.75
2018-06-03T01:28:34.461Z,56.93
2018-06-03T01:31:01.986Z,57.04
2018-06-03T01:33:29.547Z,57.15
2018-06-03T01:35:57.114Z,57.20
2018-06-03T01:38:24.679Z,57.42
2018-06-03T01:40:52.226Z,57.43
2018-06-03T01:43:19.784Z,57.72
2018-06-03T01:45:47.330Z,57.78
2018-06-03T01:48:14.914Z,58.04
2018-06-03T01:50:42.481Z,58.13
2018-06-03T01:53:10.069Z,58.33
2018-06-03T01:55:37.628Z,58.46
2018-06-03T01:58:05.190Z,58.59
2018-06-03T02:00:32.725Z,58.76
2018-06-03T02:03:00.255Z,58.80
2018-06-03T02:05:27.819Z,58.96
2018-06-03T02:07:55.363Z,59.07
2018-06-03T02:10:22.939Z,59.03
2018-06-03T02:12:50.481Z,59.26
2018-06-03T02:15:18.046Z,59.27
2018-06-03T02:17:45.610Z,59.51
2018-06-03T02:20:13.157Z,59.48
2018-06-03T02:22:40.696Z,59.56
2018-06-03T02:25:08.258Z,59.71
2018-06-03T02:27:35.816Z,59.59
2018-06-03T02:30:03.380Z,59.68
2018-06-03T02:32:30.960Z,59.59
2018-06-03T02:34:58.532Z,59.84
2018-06-03T02:37:26.094Z,59.76
2018-06-03T02:39:53.630Z,59.71
2018-06-03T02:42:21.177Z,59.64
2018-06-03T02:44:48.754Z,59.65
2018-06-03T02:47:16.375Z,59.69
2018-06-03T02:49:43.961Z,59.70
2018-06-03T02:52:11.523Z,59.53
2018-06-03T02:54:39.125Z,59.48
2018-06-03T02:57:06.665Z,59.52
2018-06-03T02:59:34.240Z,59.63
2018-06-03T03:02:01.814Z,59.55
2018-06-03T03:04:29.383Z,59.54
2018-06-03T03:06:56.910Z,59.64
2018-06-03T03:09:24.451Z,59.75
2018-06-03T03:12:23.588Z,60.13
2018-06-03T03:14:52.127Z,60.73
2018-06-03T03:17:20.915Z,60.72
2018-06-03T03:19:49.538Z,60.74
2018-06-03T03:22:18.056Z,60.21
2018-06-03T03:24:46.565Z,60.28
2018-06-03T03:27:15.071Z,60.84
2018-06-03T03:29:43.594Z,60.90
2018-06-03T03:32:12.121Z,60.48
2018-06-03T03:34:40.640Z,61.07
2018-06-03T03:37:09.403Z,60.70
2018-06-03T03:39:37.934Z,59.98
2018-06-03T03:42:06.485Z,60.56
2018-06-03T03:44:34.983Z,60.41
2018-06-03T03:47:03.530Z,61.26
2018-06-03T03:49:32.027Z,60.42
2018-06-03T03:52:00.659Z,61.66
2018-06-03T03:54:29.252Z,61.97
2018-06-03T03:56:57.877Z,61.47
2018-06-03T03:59:26.448Z,61.62
2018-06-03T04:01:56.639Z,61.73
2018-06-03T04:04:25.149Z,62.25
2018-06-03T04:06:53.722Z,62.61
2018-06-03T04:09:22.255Z,62.41
2018-06-03T04:11:50.818Z,62.02
2018-06-03T04:14:19.406Z,63.03
2018-06-03T04:16:47.946Z,62.34
2018-06-03T04:19:16.439Z,61.98
2018-06-03T04:21:44.951Z,62.68
2018-06-03T04:24:13.485Z,62.10
2018-06-03T04:26:42.063Z,62.08
2018-06-03T04:29:10.573Z,62.35
2018-06-03T04:31:39.105Z,62.24
2018-06-03T04:34:07.751Z,62.85
2018-06-03T04:36:36.273Z,62.40
2018-06-03T04:39:06.100Z,62.27
2018-06-03T04:41:34.756Z,62.17
2018-06-03T04:44:03.247Z,62.16
2018-06-03T04:46:31.910Z,62.51
2018-06-03T04:49:00.573Z,62.44
2018-06-03T04:51:29.089Z,62.31
2018-06-03T04:53:57.657Z,61.83
2018-06-03T04:56:26.169Z,62.22
2018-06-03T04:58:54.762Z,61.20
2018-06-03T05:01:23.280Z,60.47
2018-06-03T05:03:51.770Z,61.05
2018-06-03T05:06:20.277Z,60.33
2018-06-03T05:08:48.864Z,59.69
2018-06-03T05:11:17.541Z,59.22
2018-06-03T05:13:46.162Z,60.16
2018-06-03T05:16:14.714Z,60.29
2018-06-03T05:18:43.257Z,60.24
2018-06-03T05:21:11.845Z,59.78
2018-06-03T05:23:40.481Z,59.78
2018-06-03T05:26:09.035Z,59.95
2018-06-03T05:28:37.603Z,59.66
2018-06-03T05:31:06.376Z,59.40
2018-06-03T05:33:34.927Z,58.93
2018-06-03T05:36:03.468Z,58.27
2018-06-03T05:38:31.951Z,58.10
2018-06-03T05:41:00.871Z,57.52
2018-06-03T05:43:29.526Z,56.47
2018-06-03T05:45:58.283Z,56.27
2018-06-03T05:48:26.953Z,56.87
2018-06-03T05:50:55.605Z,55.76
2018-06-03T05:53:24.130Z,54.86
2018-06-03T05:55:52.731Z,54.00
2018-06-03T05:58:21.390Z,52.91
2018-06-03T06:00:50.145Z,52.22
2018-06-03T06:03:18.858Z,50.82
2018-06-03T06:05:47.391Z,50.64
2018-06-03T06:08:16.018Z,49.55
2018-06-03T06:10:45.962Z,49.67
2018-06-03T06:13:14.633Z,48.40
2018-06-03T06:15:43.259Z,48.61
2018-06-03T06:18:12.015Z,47.48
2018-06-03T06:20:40.799Z,48.10
2018-06-03T06:23:09.861Z,48.38
2018-06-03T06:25:38.482Z,47.78
2018-06-03T06:28:07.151Z,47.41
2018-06-03T06:30:35.954Z,48.56
2018-06-03T06:33:04.661Z,48.83
2018-06-03T06:35:33.277Z,49.03
2018-06-03T06:38:02.006Z,47.54
2018-06-03T06:40:30.648Z,48.20
2018-06-03T06:42:59.385Z,48.55
2018-06-03T06:45:28.112Z,48.79
2018-06-03T06:47:57.494Z,47.71
2018-06-03T06:50:26.411Z,47.55
2018-06-03T06:52:55.170Z,47.80
2018-06-03T06:55:23.988Z,45.77
2018-06-03T06:57:52.675Z,45.17
2018-06-03T07:00:21.431Z,45.65
2018-06-03T07:02:50.081Z,45.87
2018-06-03T07:05:19.774Z,45.00
2018-06-03T07:07:48.470Z,44.76
2018-06-03T07:10:18.240Z,44.56
2018-06-03T07:12:46.950Z,46.02
2018-06-03T07:15:15.614Z,45.08
2018-06-03T07:17:44.281Z,44.54
2018-06-03T07:20:12.911Z,45.00
2018-06-03T07:22:41.668Z,45.06
2018-06-03T07:25:10.373Z,44.02
2018-06-03T07:27:39.061Z,44.11
2018-06-03T07:30:07.810Z,43.09
2018-06-03T07:32:36.501Z,43.90
2018-06-03T07:35:05.301Z,42.97
2018-06-03T07:37:33.854Z,40.91
2018-06-03T07:40:02.528Z,39.70
2018-06-03T07:42:31.166Z,37.97
2018-06-03T07:44:59.809Z,38.29
2018-06-03T07:47:28.563Z,37.74
2018-06-03T07:49:57.237Z,37.17
2018-06-03T07:52:25.782Z,36.12
2018-06-03T07:54:54.447Z,34.90
2018-06-03T07:57:23.166Z,33.93
2018-06-03T07:59:51.727Z,32.67
2018-06-03T08:02:20.320Z,31.76
2018-06-03T08:04:48.956Z,30.51
2018-06-03T08:07:17.891Z,29.82
2018-06-03T08:09:46.974Z,30.12
2018-06-03T08:12:16.062Z,30.97
2018-06-03T08:14:44.971Z,31.43
2018-06-03T08:17:13.984Z,31.80
2018-06-03T08:19:43.616Z,33.78
2018-06-03T08:22:13.487Z,34.20
2018-06-03T08:24:42.722Z,34.02
2018-06-03T08:27:13.467Z,34.95
2018-06-03T08:29:42.655Z,36.13
2018-06-03T08:32:11.396Z,37.10
2018-06-03T08:34:40.534Z,36.77
2018-06-03T08:37:12.695Z,37.10
2018-06-03T08:39:41.603Z,37.06
2018-06-03T08:42:10.449Z,34.94
2018-06-03T08:44:39.362Z,34.50
2018-06-03T08:47:08.173Z,33.19
2018-06-03T08:49:37.189Z,30.72
2018-06-03T08:52:05.902Z,29.57
2018-06-03T08:54:34.518Z,27.27
2018-06-03T08:57:03.283Z,27.69
2018-06-03T08:59:32.238Z,27.58
2018-06-03T09:02:00.915Z,27.59
2018-06-03T09:04:32.275Z,27.52
2018-06-03T09:07:01.681Z,27.62
2018-06-03T09:09:30.592Z,27.68
2018-06-03T09:12:01.493Z,29.44
2018-06-03T09:14:31.891Z,30.19
2018-06-03T09:17:00.521Z,31.49
2018-06-03T09:19:29.090Z,32.77
2018-06-03T09:21:57.920Z,33.09
2018-06-03T09:24:26.616Z,34.36
2018-06-03T09:26:55.171Z,35.04
2018-06-03T09:29:23.880Z,35.81
2018-06-03T09:31:52.765Z,35.75
2018-06-03T09:34:21.646Z,37.22
2018-06-03T09:36:50.867Z,37.24
2018-06-03T09:39:19.470Z,37.52
2018-06-03T09:41:48.282Z,37.75
2018-06-03T09:44:29.825Z,38.26
2018-06-03T09:46:58.558Z,38.58
2018-06-03T09:49:27.077Z,38.60
2018-06-03T09:51:56.055Z,39.03
2018-06-03T09:54:24.956Z,38.36
2018-06-03T09:56:53.509Z,38.63
2018-06-03T09:59:21.975Z,38.70
2018-06-03T10:01:50.556Z,39.07
2018-06-03T10:04:19.158Z,37.59
2018-06-03T10:06:47.748Z,39.46
2018-06-03T10:09:16.445Z,37.47
2018-06-03T10:11:45.169Z,38.44
2018-06-03T10:14:13.809Z,39.06
2018-06-03T10:16:42.427Z,39.05
2018-06-03T10:19:11.103Z,37.90
2018-06-03T10:21:39.698Z,38.24
2018-06-03T10:24:08.238Z,37.38
2018-06-03T10:26:36.830Z,37.76
2018-06-03T10:29:05.444Z,37.54
2018-06-03T10:31:34.128Z,37.34
2018-06-03T10:34:02.844Z,35.73
2018-06-03T10:36:31.418Z,36.28
2018-06-03T10:39:00.100Z,35.59
2018-06-03T10:41:28.753Z,36.30
2018-06-03T10:43:57.326Z,35.40
2018-06-03T10:46:25.901Z,35.29
2018-06-03T10:48:54.503Z,35.32
2018-06-03T10:51:23.011Z,34.12
2018-06-03T10:53:51.650Z,33.31
2018-06-03T10:56:20.232Z,32.68
2018-06-03T10:58:48.797Z,32.05
2018-06-03T11:01:17.332Z,31.88
2018-06-03T11:03:45.930Z,31.20
2018-06-03T11:06:14.511Z,31.18
2018-06-03T11:08:43.049Z,30.96
2018-06-03T11:11:11.571Z,31.65
2018-06-03T11:13:40.235Z,31.67
2018-06-03T11:16:08.795Z,30.85
2018-06-03T11:18:37.333Z,29.87
2018-06-03T11:21:05.865Z,30.55
2018-06-03T11:23:34.480Z,31.71
2018-06-03T11:26:03.075Z,30.64
2018-06-03T11:28:31.770Z,30.08
2018-06-03T11:31:00.424Z,30.00
2018-06-03T11:33:29.031Z,30.39
2018-06-03T11:35:57.724Z,30.18
2018-06-03T11:38:26.369Z,29.91
2018-06-03T11:40:55.212Z,29.50
2018-06-03T11:43:23.979Z,30.26
2018-06-03T11:45:52.666Z,29.04
2018-06-03T11:48:21.405Z,30.00
2018-06-03T11:50:50.069Z,29.93
2018-06-03T11:53:18.764Z,29.47
2018-06-03T11:55:47.513Z,30.16
2018-06-03T11:58:54.438Z,29.94
2018-06-03T12:01:23.737Z,29.82
2018-06-03T12:03:52.511Z,30.81
2018-06-03T12:06:21.187Z,31.29
2018-06-03T12:08:49.892Z,30.25
2018-06-03T12:11:18.450Z,30.80
2018-06-03T12:13:47.128Z,31.62
2018-06-03T12:16:16.162Z,32.03
2018-06-03T12:18:44.875Z,32.70
2018-06-03T12:21:13.593Z,33.01
2018-06-03T12:23:42.250Z,33.07
2018-06-03T12:26:10.964Z,33.12
2018-06-03T12:28:39.693Z,33.45
2018-06-03T12:31:08.408Z,33.84
2018-06-03T12:33:37.143Z,33.02
2018-06-03T12:36:05.872Z,32.85
2018-06-03T12:38:34.606Z,33.92
2018-06-03T12:41:03.293Z,33.52
2018-06-03T12:43:32.045Z,33.52
2018-06-03T12:46:00.804Z,32.18
2018-06-03T12:48:29.518Z,31.79
2018-06-03T12:50:58.166Z,31.51
2018-06-03T12:53:26.707Z,32.04
2018-06-03T12:55:55.253Z,31.35
2018-06-03T12:58:23.883Z,31.87
2018-06-03T13:00:52.547Z,32.52
2018-06-03T13:03:21.163Z,31.59
2018-06-03T13:05:49.755Z,32.07
2018-06-03T13:08:18.299Z,31.55
2018-06-03T13:10:46.996Z,31.00
2018-06-03T13:13:15.555Z,31.15
2018-06-03T13:15:44.272Z,30.79
2018-06-03T13:18:12.862Z,30.92
2018-06-03T13:20:41.418Z,30.68
2018-06-03T13:23:10.069Z,31.53
2018-06-03T13:25:38.743Z,30.48
2018-06-03T13:28:07.442Z,29.67
2018-06-03T13:30:36.098Z,30.32
2018-06-03T13:33:04.660Z,31.09
2018-06-03T13:35:33.249Z,30.50
2018-06-03T13:38:01.870Z,30.68
2018-06-03T13:40:30.445Z,30.91
2018-06-03T13:42:59.111Z,30.64
2018-06-03T13:45:27.733Z,30.55
2018-06-03T13:47:56.379Z,30.35
2018-06-03T13:50:25.018Z,31.20
2018-06-03T13:52:53.580Z,31.47
2018-06-03T13:55:23.735Z,30.38
2018-06-03T13:57:52.323Z,31.72
2018-06-03T14:00:20.885Z,31.14
2018-06-03T14:02:49.415Z,31.02
2018-06-03T14:05:17.928Z,30.88
2018-06-03T14:07:46.578Z,30.91
2018-06-03T14:10:15.182Z,31.72
2018-06-03T14:12:43.820Z,31.37
2018-06-03T14:15:12.439Z,32.21
2018-06-03T14:17:41.090Z,32.81
2018-06-03T14:20:09.744Z,32.44
2018-06-03T14:22:38.450Z,32.21
2018-06-03T14:25:07.001Z,31.41
2018-06-03T14:27:35.556Z,31.66
2018-06-03T14:30:04.152Z,31.47
2018-06-03T14:32:32.839Z,31.96
2018-06-03T14:35:01.521Z,32.10
2018-06-03T14:37:30.104Z,32.36
2018-06-03T14:39:58.745Z,31.92
2018-06-03T14:42:27.392Z,32.69
2018-06-03T14:44:56.085Z,32.88
2018-06-03T14:47:24.763Z,32.90
2018-06-03T14:49:53.459Z,32.86
2018-06-03T14:52:22.167Z,33.14
2018-06-03T14:54:50.970Z,32.92
2018-06-03T14:57:19.584Z,31.81
2018-06-03T14:59:48.134Z,32.53
2018-06-03T15:02:16.710Z,32.84
2018-06-03T15:04:45.416Z,33.23
2018-06-03T15:07:14.121Z,33.17
2018-06-03T15:09:42.782Z,33.38
2018-06-03T15:12:11.384Z,33.55
2018-06-03T15:14:39.943Z,33.51
2018-06-03T15:17:08.532Z,33.71
2018-06-03T15:19:37.067Z,33.62
2018-06-03T15:22:05.808Z,33.79
2018-06-03T15:24:34.604Z,33.70
2018-06-03T15:27:03.289Z,33.70
2018-06-03T15:29:31.857Z,33.44
2018-06-03T15:32:00.436Z,34.02
2018-06-03T15:34:29.051Z,34.19
2018-06-03T15:36:57.664Z,34.37
2018-06-03T15:39:27.293Z,34.68
2018-06-03T15:41:55.887Z,34.13
2018-06-03T15:44:24.841Z,34.13
2018-06-03T15:46:53.470Z,33.38
2018-06-03T15:49:22.319Z,33.19
2018-06-03T15:51:51.009Z,33.51
2018-06-03T15:54:19.703Z,33.89
2018-06-03T15:56:48.309Z,34.67
2018-06-03T15:59:17.148Z,34.62
2018-06-03T16:01:46.097Z,34.86
2018-06-03T16:04:14.840Z,35.64
2018-06-03T16:06:43.691Z,35.35
2018-06-03T16:09:12.576Z,36.03
2018-06-03T16:11:41.526Z,36.40
2018-06-03T16:14:10.302Z,35.89
2018-06-03T16:16:39.284Z,36.06
2018-06-03T16:19:08.137Z,35.74
2018-06-03T16:21:36.809Z,35.85
2018-06-03T16:24:05.661Z,35.53
2018-06-03T16:26:34.273Z,35.78
2018-06-03T16:29:02.940Z,36.73
2018-06-03T16:31:31.675Z,36.59
2018-06-03T16:34:00.338Z,36.36
2018-06-03T16:36:28.965Z,36.88
2018-06-03T16:38:57.644Z,36.80
2018-06-03T16:41:26.234Z,35.53
2018-06-03T16:43:54.841Z,36.70
2018-06-03T16:46:23.724Z,36.25
2018-06-03T16:48:52.392Z,37.29
2018-06-03T16:51:21.013Z,37.82
2018-06-03T16:53:49.815Z,37.53
2018-06-03T16:56:18.561Z,37.09
2018-06-03T16:58:47.367Z,38.26
2018-06-03T17:01:16.083Z,38.24
2018-06-03T17:03:45.063Z,37.70
2018-06-03T17:06:13.767Z,38.18
2018-06-03T17:08:42.452Z,38.32
2018-06-03T17:11:11.183Z,38.45
2018-06-03T17:13:39.939Z,38.26
2018-06-03T17:16:08.646Z,38.59
2018-06-03T17:18:37.320Z,39.05
2018-06-03T17:21:06.180Z,38.67
2018-06-03T17:23:34.824Z,38.26
2018-06-03T17:26:03.395Z,39.01
2018-06-03T17:28:32.000Z,39.73
2018-06-03T17:31:01.129Z,39.43
2018-06-03T17:33:29.771Z,39.49
2018-06-03T17:35:58.565Z,38.85
2018-06-03T17:38:27.271Z,38.91
2018-06-03T17:40:56.206Z,40.02
2018-06-03T17:43:24.950Z,39.72
2018-06-03T17:45:56.402Z,39.48
2018-06-03T17:48:25.937Z,39.88
2018-06-03T17:50:54.660Z,40.64
2018-06-03T17:53:23.797Z,40.97
2018-06-03T17:55:52.689Z,40.19
2018-06-03T17:58:21.910Z,41.31
2018-06-03T18:00:51.265Z,40.68
2018-06-03T18:03:20.177Z,41.65
2018-06-03T18:05:49.797Z,41.05
2018-06-03T18:08:19.124Z,41.34
2018-06-03T18:10:47.974Z,41.85
2018-06-03T18:13:16.748Z,41.12
2018-06-03T18:15:45.623Z,41.65
2018-06-03T18:18:14.338Z,41.10
2018-06-03T18:20:43.198Z,41.77
2018-06-03T18:23:12.140Z,40.90
2018-06-03T18:25:40.863Z,41.34
2018-06-03T18:28:10.228Z,41.08
2018-06-03T18:30:39.115Z,41.08
2018-06-03T18:33:08.190Z,42.11
2018-06-03T18:35:37.438Z,41.81
2018-06-03T18:38:06.441Z,41.47
2018-06-03T18:40:35.192Z,41.95
2018-06-03T18:43:04.095Z,42.99
2018-06-03T18:45:33.071Z,42.93
2018-06-03T18:48:01.859Z,41.76
2018-06-03T18:50:30.732Z,42.57
2018-06-03T18:52:59.356Z,43.34
2018-06-03T18:55:27.934Z,43.41
2018-06-03T18:57:56.761Z,43.12
2018-06-03T19:00:25.380Z,42.58
2018-06-03T19:02:54.219Z,42.88
2018-06-03T19:05:22.944Z,43.15
2018-06-03T19:07:51.708Z,42.97
2018-06-03T19:10:20.624Z,44.02
2018-06-03T19:12:49.667Z,43.87
2018-06-03T19:15:19.617Z,44.19
2018-06-03T19:17:48.611Z,44.09
2018-06-03T19:20:17.471Z,44.14
2018-06-03T19:22:46.320Z,43.68
2018-06-03T19:25:15.284Z,43.96
2018-06-03T19:27:44.218Z,43.84
2018-06-03T19:30:13.066Z,45.24
2018-06-03T19:32:41.990Z,45.39
2018-06-03T19:35:12.063Z,44.89
2018-06-03T19:37:41.438Z,45.40
2018-06-03T19:40:10.163Z,45.19
2018-06-03T19:42:39.261Z,45.60
2018-06-03T19:45:08.082Z,45.73
2018-06-03T19:47:37.481Z,45.90
2018-06-03T19:50:06.331Z,46.17
2018-06-03T19:52:35.410Z,46.24
2018-06-03T19:55:04.439Z,47.10
2018-06-03T19:57:33.220Z,46.99
2018-06-03T20:00:02.249Z,47.23
2018-06-03T20:02:31.106Z,47.92
2018-06-03T20:05:00.024Z,47.65
2018-06-03T20:07:28.754Z,48.50
2018-06-03T20:09:57.711Z,48.57
2018-06-03T20:12:26.516Z,48.82
2018-06-03T20:14:55.353Z,49.18
2018-06-03T20:17:24.188Z,49.41
2018-06-03T20:19:53.061Z,49.48
2018-06-03T20:22:21.837Z,49.24
2018-06-03T20:24:50.527Z,49.52
2018-06-03T20:27:19.870Z,49.94
2018-06-03T20:29:48.648Z,49.96
2018-06-03T20:32:17.593Z,50.75
2018-06-03T20:34:46.521Z,50.80
2018-06-03T20:37:15.295Z,50.75
2018-06-03T20:39:44.033Z,51.60
2018-06-03T20:42:12.817Z,50.85
2018-06-03T20:44:41.897Z,51.11
2018-06-03T20:47:16.921Z,51.95
2018-06-03T20:49:45.945Z,51.48
2018-06-03T20:52:14.768Z,51.91
2018-06-03T20:54:43.836Z,52.57
2018-06-03T20:57:12.897Z,52.57
2018-06-03T20:59:41.641Z,53.06
2018-06-03T21:02:10.437Z,52.75
2018-06-03T21:04:39.270Z,52.87
2018-06-03T21:07:07.961Z,52.95
2018-06-03T21:09:36.681Z,53.65
2018-06-03T21:12:05.709Z,53.48
2018-06-03T21:14:34.481Z,53.29
2018-06-03T21:17:03.318Z,54.26
2018-06-03T21:19:32.094Z,53.93
2018-06-03T21:22:00.815Z,54.55
2018-06-03T21:24:29.472Z,53.86
2018-06-03T21:26:58.539Z,54.74
2018-06-03T21:29:27.317Z,54.69
2018-06-03T21:31:55.997Z,55.03
2018-06-03T21:34:24.727Z,54.81
2018-06-03T21:36:54.194Z,55.44
2018-06-03T21:39:22.839Z,55.24
2018-06-03T21:41:51.508Z,55.15
2018-06-03T21:44:20.218Z,55.31
2018-06-03T21:46:48.938Z,55.18
2018-06-03T21:49:17.559Z,55.04
2018-06-03T21:51:46.170Z,55.52
2018-06-03T21:54:14.787Z,55.67
2018-06-03T21:56:43.421Z,56.25
2018-06-03T21:59:12.070Z,55.85
2018-06-03T22:01:40.725Z,56.52
2018-06-03T22:04:09.408Z,56.41
2018-06-03T22:06:38.001Z,56.65
2018-06-03T22:09:08.255Z,56.90
2018-06-03T22:11:36.916Z,57.19
2018-06-03T22:14:05.624Z,57.39
2018-06-03T22:16:34.293Z,56.67
2018-06-03T22:19:02.863Z,57.42
2018-06-03T22:21:31.553Z,56.50
2018-06-03T22:24:00.140Z,57.44
2018-06-03T22:26:28.693Z,57.15
2018-06-03T22:28:57.291Z,57.13
2018-06-03T22:31:25.831Z,57.38
2018-06-03T22:33:54.443Z,57.47
2018-06-03T22:36:23.043Z,57.90
2018-06-03T22:38:51.658Z,58.29
2018-06-03T22:41:20.340Z,58.47
2018-06-03T22:43:49.007Z,57.88
2018-06-03T22:46:17.604Z,58.73
2018-06-03T22:48:46.187Z,58.92
2018-06-03T22:51:14.768Z,58.21
2018-06-03T22:53:43.486Z,58.61
2018-06-03T22:56:12.179Z,58.32
2018-06-03T22:58:40.893Z,58.32
2018-06-03T23:01:09.528Z,58.19
2018-06-03T23:03:38.209Z,59.53
2018-06-03T23:06:06.862Z,59.30
2018-06-03T23:08:35.574Z,59.64
2018-06-03T23:11:04.155Z,58.62
2018-06-03T23:13:32.689Z,59.60
2018-06-03T23:16:01.373Z,59.42
2018-06-03T23:18:29.958Z,59.45
2018-06-03T23:20:58.588Z,59.43
2018-06-03T23:23:27.247Z,59.22
2018-06-03T23:25:55.881Z,59.58
2018-06-03T23:28:24.568Z,59.32
2018-06-03T23:30:53.250Z,59.10
2018-06-03T23:33:21.877Z,59.24
2018-06-03T23:35:50.572Z,59.70
2018-06-03T23:38:19.228Z,59.58
2018-06-03T23:40:47.887Z,59.57
2018-06-03T23:43:16.499Z,60.38
2018-06-03T23:45:45.199Z,59.84
2018-06-03T23:48:14.322Z,59.91
2018-06-03T23:50:43.021Z,60.23
2018-06-03T23:53:11.673Z,60.63
2018-06-03T23:55:40.787Z,60.62
2018-06-03T23:58:09.336Z,60.82
